sensor_id;sensor_type;location;lat;lon;timestamp;pressure;altitude;pressure_sealevel;temperature;humidity
57412;BME280;43247;52.828;-8.980;2023-06-14T00:00:36;101603.64;;;19.29;87.42
57412;BME280;43247;52.828;-8.980;2023-06-14T00:01:37;101602.81;;;19.29;87.42
57412;BME280;43247;52.828;-8.980;2023-06-14T00:02:38;101605.52;;;19.29;87.46
57412;BME280;43247;52.828;-8.980;2023-06-14T00:03:38;101603.87;;;19.28;87.35
57412;BME280;43247;52.828;-8.980;2023-06-14T00:04:39;101604.10;;;19.28;87.41
57412;BME280;43247;52.828;-8.980;2023-06-14T00:05:39;101604.99;;;19.27;87.45
57412;BME280;43247;52.828;-8.980;2023-06-14T00:06:39;101604.61;;;19.27;87.44
57412;BME280;43247;52.828;-8.980;2023-06-14T00:07:41;101603.53;;;19.27;87.44
57412;BME280;43247;52.828;-8.980;2023-06-14T00:08:40;101602.39;;;19.26;87.46
57412;BME280;43247;52.828;-8.980;2023-06-14T00:09:41;101600.56;;;19.26;87.44
57412;BME280;43247;52.828;-8.980;2023-06-14T00:10:42;101600.78;;;19.26;87.41
57412;BME280;43247;52.828;-8.980;2023-06-14T00:11:42;101601.86;;;19.26;87.35
57412;BME280;43247;52.828;-8.980;2023-06-14T00:12:43;101601.01;;;19.26;87.41
57412;BME280;43247;52.828;-8.980;2023-06-14T00:13:43;101602.22;;;19.25;87.37
57412;BME280;43247;52.828;-8.980;2023-06-14T00:14:44;101603.43;;;19.24;87.35
57412;BME280;43247;52.828;-8.980;2023-06-14T00:15:45;101602.06;;;19.23;87.30
57412;BME280;43247;52.828;-8.980;2023-06-14T00:16:45;101603.70;;;19.23;87.32
57412;BME280;43247;52.828;-8.980;2023-06-14T00:17:45;101604.24;;;19.22;87.29
57412;BME280;43247;52.828;-8.980;2023-06-14T00:18:45;101605.49;;;19.21;87.26
57412;BME280;43247;52.828;-8.980;2023-06-14T00:19:45;101607.35;;;19.21;87.30
57412;BME280;43247;52.828;-8.980;2023-06-14T00:20:46;101610.18;;;19.20;87.28
57412;BME280;43247;52.828;-8.980;2023-06-14T00:21:47;101608.93;;;19.20;87.35
57412;BME280;43247;52.828;-8.980;2023-06-14T00:22:47;101608.37;;;19.19;87.24
57412;BME280;43247;52.828;-8.980;2023-06-14T00:23:47;101611.00;;;19.18;87.12
57412;BME280;43247;52.828;-8.980;2023-06-14T00:24:47;101610.54;;;19.18;87.19
57412;BME280;43247;52.828;-8.980;2023-06-14T00:25:48;101611.40;;;19.17;87.17
57412;BME280;43247;52.828;-8.980;2023-06-14T00:26:48;101611.10;;;19.16;87.14
57412;BME280;43247;52.828;-8.980;2023-06-14T00:27:48;101611.18;;;19.15;87.14
57412;BME280;43247;52.828;-8.980;2023-06-14T00:28:49;101610.15;;;19.14;87.04
57412;BME280;43247;52.828;-8.980;2023-06-14T00:29:49;101609.72;;;19.13;87.05
57412;BME280;43247;52.828;-8.980;2023-06-14T00:30:49;101610.97;;;19.12;87.03
57412;BME280;43247;52.828;-8.980;2023-06-14T00:31:50;101611.38;;;19.11;87.04
57412;BME280;43247;52.828;-8.980;2023-06-14T00:32:51;101611.91;;;19.10;87.09
57412;BME280;43247;52.828;-8.980;2023-06-14T00:33:51;101614.79;;;19.10;87.06
57412;BME280;43247;52.828;-8.980;2023-06-14T00:34:51;101614.41;;;19.09;87.08
57412;BME280;43247;52.828;-8.980;2023-06-14T00:35:52;101615.28;;;19.08;87.20
57412;BME280;43247;52.828;-8.980;2023-06-14T00:36:52;101616.25;;;19.07;87.06
57412;BME280;43247;52.828;-8.980;2023-06-14T00:37:52;101616.45;;;19.06;87.23
57412;BME280;43247;52.828;-8.980;2023-06-14T00:38:52;101616.97;;;19.06;87.13
57412;BME280;43247;52.828;-8.980;2023-06-14T00:39:53;101615.39;;;19.05;87.19
57412;BME280;43247;52.828;-8.980;2023-06-14T00:40:54;101615.24;;;19.04;87.11
57412;BME280;43247;52.828;-8.980;2023-06-14T00:41:54;101614.69;;;19.04;87.13
57412;BME280;43247;52.828;-8.980;2023-06-14T00:42:55;101614.84;;;19.03;87.12
57412;BME280;43247;52.828;-8.980;2023-06-14T00:43:55;101614.24;;;19.02;87.16
57412;BME280;43247;52.828;-8.980;2023-06-14T00:44:56;101613.15;;;19.01;87.18
57412;BME280;43247;52.828;-8.980;2023-06-14T00:45:56;101616.20;;;19.00;87.12
57412;BME280;43247;52.828;-8.980;2023-06-14T00:46:56;101617.22;;;19.01;87.17
57412;BME280;43247;52.828;-8.980;2023-06-14T00:47:57;101617.31;;;18.99;87.25
57412;BME280;43247;52.828;-8.980;2023-06-14T00:48:58;101617.28;;;18.99;87.16
57412;BME280;43247;52.828;-8.980;2023-06-14T00:49:57;101617.88;;;18.98;87.12
57412;BME280;43247;52.828;-8.980;2023-06-14T00:50:58;101619.87;;;18.97;87.09
57412;BME280;43247;52.828;-8.980;2023-06-14T00:51:58;101619.34;;;18.97;87.05
57412;BME280;43247;52.828;-8.980;2023-06-14T00:52:59;101620.18;;;18.95;87.08
57412;BME280;43247;52.828;-8.980;2023-06-14T00:53:59;101620.61;;;18.94;87.07
57412;BME280;43247;52.828;-8.980;2023-06-14T00:54:59;101620.26;;;18.93;87.10
57412;BME280;43247;52.828;-8.980;2023-06-14T00:56:00;101620.75;;;18.92;87.09
57412;BME280;43247;52.828;-8.980;2023-06-14T00:57:00;101621.15;;;18.90;87.10
57412;BME280;43247;52.828;-8.980;2023-06-14T00:58:00;101621.72;;;18.89;87.09
57412;BME280;43247;52.828;-8.980;2023-06-14T00:59:02;101623.38;;;18.89;87.10
57412;BME280;43247;52.828;-8.980;2023-06-14T01:00:04;101621.18;;;18.89;87.04
57412;BME280;43247;52.828;-8.980;2023-06-14T01:01:04;101622.40;;;18.88;87.09
57412;BME280;43247;52.828;-8.980;2023-06-14T01:02:05;101620.38;;;18.87;87.04
57412;BME280;43247;52.828;-8.980;2023-06-14T01:03:05;101621.74;;;18.85;87.09
57412;BME280;43247;52.828;-8.980;2023-06-14T01:04:06;101620.96;;;18.83;87.15
57412;BME280;43247;52.828;-8.980;2023-06-14T01:05:08;101620.23;;;18.81;87.15
57412;BME280;43247;52.828;-8.980;2023-06-14T01:06:15;101618.32;;;18.80;87.19
57412;BME280;43247;52.828;-8.980;2023-06-14T01:07:11;101617.43;;;18.79;87.22
57412;BME280;43247;52.828;-8.980;2023-06-14T01:08:18;101617.01;;;18.78;87.18
57412;BME280;43247;52.828;-8.980;2023-06-14T01:09:15;101617.38;;;18.77;87.17
57412;BME280;43247;52.828;-8.980;2023-06-14T01:10:18;101615.70;;;18.76;87.14
57412;BME280;43247;52.828;-8.980;2023-06-14T01:11:14;101614.97;;;18.75;87.19
57412;BME280;43247;52.828;-8.980;2023-06-14T01:12:13;101615.72;;;18.74;87.09
57412;BME280;43247;52.828;-8.980;2023-06-14T01:13:15;101618.75;;;18.74;87.08
57412;BME280;43247;52.828;-8.980;2023-06-14T01:14:12;101617.83;;;18.73;87.04
57412;BME280;43247;52.828;-8.980;2023-06-14T01:15:12;101618.80;;;18.72;87.05
57412;BME280;43247;52.828;-8.980;2023-06-14T01:16:12;101620.70;;;18.71;86.98
57412;BME280;43247;52.828;-8.980;2023-06-14T01:17:12;101619.91;;;18.70;86.90
57412;BME280;43247;52.828;-8.980;2023-06-14T01:18:12;101619.58;;;18.70;86.96
57412;BME280;43247;52.828;-8.980;2023-06-14T01:19:13;101618.93;;;18.70;86.93
57412;BME280;43247;52.828;-8.980;2023-06-14T01:20:13;101620.77;;;18.69;86.89
57412;BME280;43247;52.828;-8.980;2023-06-14T01:21:22;101619.62;;;18.69;86.94
57412;BME280;43247;52.828;-8.980;2023-06-14T01:22:14;101618.78;;;18.68;86.87
57412;BME280;43247;52.828;-8.980;2023-06-14T01:23:14;101619.38;;;18.67;86.86
57412;BME280;43247;52.828;-8.980;2023-06-14T01:24:14;101620.74;;;18.67;86.79
57412;BME280;43247;52.828;-8.980;2023-06-14T01:25:15;101619.76;;;18.66;86.80
57412;BME280;43247;52.828;-8.980;2023-06-14T01:26:15;101618.94;;;18.66;86.73
57412;BME280;43247;52.828;-8.980;2023-06-14T01:27:16;101616.87;;;18.66;86.74
57412;BME280;43247;52.828;-8.980;2023-06-14T01:28:17;101617.25;;;18.65;86.79
57412;BME280;43247;52.828;-8.980;2023-06-14T01:29:17;101615.00;;;18.64;86.67
57412;BME280;43247;52.828;-8.980;2023-06-14T01:30:19;101614.32;;;18.64;86.65
57412;BME280;43247;52.828;-8.980;2023-06-14T01:31:20;101613.91;;;18.64;86.69
57412;BME280;43247;52.828;-8.980;2023-06-14T01:32:19;101612.51;;;18.63;86.66
57412;BME280;43247;52.828;-8.980;2023-06-14T01:33:21;101611.33;;;18.62;86.63
57412;BME280;43247;52.828;-8.980;2023-06-14T01:34:20;101612.71;;;18.62;86.65
57412;BME280;43247;52.828;-8.980;2023-06-14T01:35:20;101610.71;;;18.61;86.68
57412;BME280;43247;52.828;-8.980;2023-06-14T01:36:22;101609.45;;;18.61;86.63
57412;BME280;43247;52.828;-8.980;2023-06-14T01:37:21;101609.95;;;18.61;86.72
57412;BME280;43247;52.828;-8.980;2023-06-14T01:38:24;101608.75;;;18.61;86.72
57412;BME280;43247;52.828;-8.980;2023-06-14T01:39:23;101605.96;;;18.60;86.67
57412;BME280;43247;52.828;-8.980;2023-06-14T01:40:24;101605.42;;;18.59;86.59
57412;BME280;43247;52.828;-8.980;2023-06-14T01:41:24;101604.41;;;18.58;86.54
57412;BME280;43247;52.828;-8.980;2023-06-14T01:42:24;101603.88;;;18.57;86.60
57412;BME280;43247;52.828;-8.980;2023-06-14T01:43:25;101604.82;;;18.56;86.63
57412;BME280;43247;52.828;-8.980;2023-06-14T01:44:25;101605.14;;;18.55;86.52
57412;BME280;43247;52.828;-8.980;2023-06-14T01:45:25;101602.74;;;18.54;86.52
57412;BME280;43247;52.828;-8.980;2023-06-14T01:46:26;101603.38;;;18.53;86.53
57412;BME280;43247;52.828;-8.980;2023-06-14T01:47:27;101603.37;;;18.45;86.70
57412;BME280;43247;52.828;-8.980;2023-06-14T01:48:27;101604.32;;;18.41;86.63
57412;BME280;43247;52.828;-8.980;2023-06-14T01:49:28;101603.29;;;18.41;86.51
57412;BME280;43247;52.828;-8.980;2023-06-14T01:50:29;101602.63;;;18.39;86.50
57412;BME280;43247;52.828;-8.980;2023-06-14T01:51:28;101604.32;;;18.41;86.39
57412;BME280;43247;52.828;-8.980;2023-06-14T01:52:29;101601.99;;;18.42;86.23
57412;BME280;43247;52.828;-8.980;2023-06-14T01:53:29;101601.64;;;18.43;86.04
57412;BME280;43247;52.828;-8.980;2023-06-14T01:54:29;101601.41;;;18.40;85.96
57412;BME280;43247;52.828;-8.980;2023-06-14T01:55:30;101600.52;;;18.43;85.88
57412;BME280;43247;52.828;-8.980;2023-06-14T01:56:30;101599.27;;;18.41;85.86
57412;BME280;43247;52.828;-8.980;2023-06-14T01:57:31;101597.54;;;18.47;85.81
57412;BME280;43247;52.828;-8.980;2023-06-14T01:58:30;101596.52;;;18.47;85.71
57412;BME280;43247;52.828;-8.980;2023-06-14T01:59:31;101595.42;;;18.47;85.68
57412;BME280;43247;52.828;-8.980;2023-06-14T02:00:31;101594.92;;;18.47;85.64
57412;BME280;43247;52.828;-8.980;2023-06-14T02:01:32;101593.51;;;18.49;85.53
57412;BME280;43247;52.828;-8.980;2023-06-14T02:02:33;101591.27;;;18.47;85.64
57412;BME280;43247;52.828;-8.980;2023-06-14T02:03:33;101590.49;;;18.49;85.49
57412;BME280;43247;52.828;-8.980;2023-06-14T02:04:34;101590.53;;;18.55;85.25
57412;BME280;43247;52.828;-8.980;2023-06-14T02:05:34;101591.35;;;18.55;85.22
57412;BME280;43247;52.828;-8.980;2023-06-14T02:06:34;101591.94;;;18.57;85.02
57412;BME280;43247;52.828;-8.980;2023-06-14T02:07:35;101591.72;;;18.59;84.95
57412;BME280;43247;52.828;-8.980;2023-06-14T02:08:36;101593.38;;;18.59;84.95
57412;BME280;43247;52.828;-8.980;2023-06-14T02:09:36;101593.21;;;18.59;85.02
57412;BME280;43247;52.828;-8.980;2023-06-14T02:10:37;101594.11;;;18.59;84.97
57412;BME280;43247;52.828;-8.980;2023-06-14T02:11:38;101594.12;;;18.57;85.00
57412;BME280;43247;52.828;-8.980;2023-06-14T02:12:38;101594.89;;;18.57;85.17
57412;BME280;43247;52.828;-8.980;2023-06-14T02:13:39;101593.55;;;18.56;85.11
57412;BME280;43247;52.828;-8.980;2023-06-14T02:14:39;101591.87;;;18.54;85.06
57412;BME280;43247;52.828;-8.980;2023-06-14T02:15:39;101590.92;;;18.53;85.13
57412;BME280;43247;52.828;-8.980;2023-06-14T02:16:40;101592.51;;;18.52;85.15
57412;BME280;43247;52.828;-8.980;2023-06-14T02:17:40;101592.48;;;18.50;85.11
57412;BME280;43247;52.828;-8.980;2023-06-14T02:18:40;101593.67;;;18.49;85.14
57412;BME280;43247;52.828;-8.980;2023-06-14T02:19:40;101589.72;;;18.48;85.23
57412;BME280;43247;52.828;-8.980;2023-06-14T02:20:41;101590.85;;;18.46;85.24
57412;BME280;43247;52.828;-8.980;2023-06-14T02:21:41;101589.99;;;18.45;85.13
57412;BME280;43247;52.828;-8.980;2023-06-14T02:22:42;101589.56;;;18.43;85.09
57412;BME280;43247;52.828;-8.980;2023-06-14T02:23:42;101590.25;;;18.42;85.14
57412;BME280;43247;52.828;-8.980;2023-06-14T02:24:43;101588.64;;;18.41;85.23
57412;BME280;43247;52.828;-8.980;2023-06-14T02:25:43;101590.08;;;18.40;85.16
57412;BME280;43247;52.828;-8.980;2023-06-14T02:26:43;101588.87;;;18.39;85.20
57412;BME280;43247;52.828;-8.980;2023-06-14T02:27:44;101589.94;;;18.38;85.27
57412;BME280;43247;52.828;-8.980;2023-06-14T02:28:45;101589.15;;;18.37;85.22
57412;BME280;43247;52.828;-8.980;2023-06-14T02:29:45;101587.56;;;18.35;85.21
57412;BME280;43247;52.828;-8.980;2023-06-14T02:30:46;101585.61;;;18.34;85.25
57412;BME280;43247;52.828;-8.980;2023-06-14T02:31:46;101584.52;;;18.33;85.20
57412;BME280;43247;52.828;-8.980;2023-06-14T02:32:46;101584.66;;;18.32;85.24
57412;BME280;43247;52.828;-8.980;2023-06-14T02:33:46;101583.85;;;18.31;85.31
57412;BME280;43247;52.828;-8.980;2023-06-14T02:34:47;101582.01;;;18.30;85.28
57412;BME280;43247;52.828;-8.980;2023-06-14T02:35:47;101584.33;;;18.28;85.31
57412;BME280;43247;52.828;-8.980;2023-06-14T02:36:47;101582.49;;;18.27;85.34
57412;BME280;43247;52.828;-8.980;2023-06-14T02:37:47;101581.74;;;18.26;85.27
57412;BME280;43247;52.828;-8.980;2023-06-14T02:38:48;101583.99;;;18.25;85.25
57412;BME280;43247;52.828;-8.980;2023-06-14T02:39:48;101586.55;;;18.25;85.30
57412;BME280;43247;52.828;-8.980;2023-06-14T02:40:49;101586.15;;;18.24;85.31
57412;BME280;43247;52.828;-8.980;2023-06-14T02:41:49;101584.86;;;18.24;85.36
57412;BME280;43247;52.828;-8.980;2023-06-14T02:42:50;101587.49;;;18.23;85.34
57412;BME280;43247;52.828;-8.980;2023-06-14T02:43:50;101587.79;;;18.22;85.37
57412;BME280;43247;52.828;-8.980;2023-06-14T02:44:50;101587.72;;;18.21;85.34
57412;BME280;43247;52.828;-8.980;2023-06-14T02:45:50;101589.09;;;18.20;85.32
57412;BME280;43247;52.828;-8.980;2023-06-14T02:46:51;101588.84;;;18.20;85.38
57412;BME280;43247;52.828;-8.980;2023-06-14T02:47:51;101587.62;;;18.19;85.40
57412;BME280;43247;52.828;-8.980;2023-06-14T02:48:52;101588.08;;;18.19;85.36
57412;BME280;43247;52.828;-8.980;2023-06-14T02:49:52;101590.31;;;18.18;85.31
57412;BME280;43247;52.828;-8.980;2023-06-14T02:50:53;101588.20;;;18.17;85.34
57412;BME280;43247;52.828;-8.980;2023-06-14T02:51:53;101585.30;;;18.16;85.46
57412;BME280;43247;52.828;-8.980;2023-06-14T02:52:53;101585.84;;;18.15;85.40
57412;BME280;43247;52.828;-8.980;2023-06-14T02:53:53;101583.04;;;18.15;85.39
57412;BME280;43247;52.828;-8.980;2023-06-14T02:54:54;101580.71;;;18.14;85.36
57412;BME280;43247;52.828;-8.980;2023-06-14T02:55:54;101580.36;;;18.12;85.33
57412;BME280;43247;52.828;-8.980;2023-06-14T02:56:55;101580.27;;;18.08;85.49
57412;BME280;43247;52.828;-8.980;2023-06-14T02:57:55;101578.57;;;18.07;85.52
57412;BME280;43247;52.828;-8.980;2023-06-14T02:58:56;101579.34;;;18.05;85.59
57412;BME280;43247;52.828;-8.980;2023-06-14T02:59:56;101577.80;;;18.04;85.59
57412;BME280;43247;52.828;-8.980;2023-06-14T03:00:57;101576.52;;;18.02;85.61
57412;BME280;43247;52.828;-8.980;2023-06-14T03:01:57;101577.85;;;18.02;85.55
57412;BME280;43247;52.828;-8.980;2023-06-14T03:02:57;101576.85;;;18.01;85.58
57412;BME280;43247;52.828;-8.980;2023-06-14T03:03:57;101573.81;;;18.00;85.57
57412;BME280;43247;52.828;-8.980;2023-06-14T03:04:58;101577.60;;;17.98;85.48
57412;BME280;43247;52.828;-8.980;2023-06-14T03:05:59;101576.68;;;17.98;85.39
57412;BME280;43247;52.828;-8.980;2023-06-14T03:06:59;101576.27;;;17.97;85.35
57412;BME280;43247;52.828;-8.980;2023-06-14T03:08:00;101576.31;;;17.95;85.20
57412;BME280;43247;52.828;-8.980;2023-06-14T03:09:00;101572.45;;;17.94;85.06
57412;BME280;43247;52.828;-8.980;2023-06-14T03:10:00;101574.70;;;17.93;84.93
57412;BME280;43247;52.828;-8.980;2023-06-14T03:11:01;101573.88;;;17.92;84.82
57412;BME280;43247;52.828;-8.980;2023-06-14T03:12:01;101573.97;;;17.91;84.76
57412;BME280;43247;52.828;-8.980;2023-06-14T03:13:01;101574.56;;;17.91;84.62
57412;BME280;43247;52.828;-8.980;2023-06-14T03:14:02;101575.09;;;17.89;84.53
57412;BME280;43247;52.828;-8.980;2023-06-14T03:15:03;101575.09;;;17.87;84.52
57412;BME280;43247;52.828;-8.980;2023-06-14T03:16:02;101575.18;;;17.86;84.46
57412;BME280;43247;52.828;-8.980;2023-06-14T03:17:02;101573.50;;;17.85;84.44
57412;BME280;43247;52.828;-8.980;2023-06-14T03:18:03;101571.04;;;17.82;84.45
57412;BME280;43247;52.828;-8.980;2023-06-14T03:19:03;101569.31;;;17.73;84.53
57412;BME280;43247;52.828;-8.980;2023-06-14T03:20:04;101567.68;;;17.64;84.58
57412;BME280;43247;52.828;-8.980;2023-06-14T03:21:04;101566.59;;;17.66;84.23
57412;BME280;43247;52.828;-8.980;2023-06-14T03:22:04;101564.20;;;17.69;83.82
57412;BME280;43247;52.828;-8.980;2023-06-14T03:23:05;101566.32;;;17.72;83.41
57412;BME280;43247;52.828;-8.980;2023-06-14T03:24:06;101564.64;;;17.66;83.64
57412;BME280;43247;52.828;-8.980;2023-06-14T03:25:06;101567.16;;;17.68;83.47
57412;BME280;43247;52.828;-8.980;2023-06-14T03:26:05;101565.99;;;17.72;83.20
57412;BME280;43247;52.828;-8.980;2023-06-14T03:27:06;101566.30;;;17.73;83.33
57412;BME280;43247;52.828;-8.980;2023-06-14T03:28:06;101567.71;;;17.73;83.44
57412;BME280;43247;52.828;-8.980;2023-06-14T03:29:06;101566.64;;;17.79;83.29
57412;BME280;43247;52.828;-8.980;2023-06-14T03:30:08;101566.54;;;17.77;83.60
57412;BME280;43247;52.828;-8.980;2023-06-14T03:31:08;101565.35;;;17.75;83.67
57412;BME280;43247;52.828;-8.980;2023-06-14T03:32:08;101570.25;;;17.70;83.96
57412;BME280;43247;52.828;-8.980;2023-06-14T03:33:08;101571.05;;;17.67;83.94
57412;BME280;43247;52.828;-8.980;2023-06-14T03:34:08;101570.97;;;17.65;83.75
57412;BME280;43247;52.828;-8.980;2023-06-14T03:35:09;101571.05;;;17.58;83.78
57412;BME280;43247;52.828;-8.980;2023-06-14T03:36:09;101571.63;;;17.65;83.50
57412;BME280;43247;52.828;-8.980;2023-06-14T03:37:10;101570.29;;;17.64;83.28
57412;BME280;43247;52.828;-8.980;2023-06-14T03:38:10;101570.71;;;17.63;83.33
57412;BME280;43247;52.828;-8.980;2023-06-14T03:39:11;101571.48;;;17.68;83.22
57412;BME280;43247;52.828;-8.980;2023-06-14T03:40:13;101569.35;;;17.68;83.31
57412;BME280;43247;52.828;-8.980;2023-06-14T03:41:11;101570.09;;;17.72;83.25
57412;BME280;43247;52.828;-8.980;2023-06-14T03:42:13;101569.24;;;17.63;83.31
57412;BME280;43247;52.828;-8.980;2023-06-14T03:43:12;101567.66;;;17.65;83.29
57412;BME280;43247;52.828;-8.980;2023-06-14T03:44:15;101567.67;;;17.70;83.35
57412;BME280;43247;52.828;-8.980;2023-06-14T03:45:12;101565.59;;;17.75;83.00
57412;BME280;43247;52.828;-8.980;2023-06-14T03:46:12;101565.36;;;17.74;83.15
57412;BME280;43247;52.828;-8.980;2023-06-14T03:47:12;101566.07;;;17.73;83.36
57412;BME280;43247;52.828;-8.980;2023-06-14T03:48:13;101566.22;;;17.71;83.44
57412;BME280;43247;52.828;-8.980;2023-06-14T03:49:14;101569.52;;;17.69;83.14
57412;BME280;43247;52.828;-8.980;2023-06-14T03:50:13;101570.81;;;17.66;83.03
57412;BME280;43247;52.828;-8.980;2023-06-14T03:51:14;101570.44;;;17.70;82.64
57412;BME280;43247;52.828;-8.980;2023-06-14T03:52:14;101570.57;;;17.68;82.66
57412;BME280;43247;52.828;-8.980;2023-06-14T03:53:14;101571.74;;;17.62;82.69
57412;BME280;43247;52.828;-8.980;2023-06-14T03:54:14;101575.02;;;17.63;82.76
57412;BME280;43247;52.828;-8.980;2023-06-14T03:55:14;101572.50;;;17.60;83.03
57412;BME280;43247;52.828;-8.980;2023-06-14T03:56:14;101575.79;;;17.68;82.83
57412;BME280;43247;52.828;-8.980;2023-06-14T03:57:15;101575.34;;;17.75;82.56
57412;BME280;43247;52.828;-8.980;2023-06-14T03:58:15;101576.42;;;17.74;82.52
57412;BME280;43247;52.828;-8.980;2023-06-14T03:59:15;101578.38;;;17.81;82.30
57412;BME280;43247;52.828;-8.980;2023-06-14T04:00:16;101578.41;;;17.75;82.48
57412;BME280;43247;52.828;-8.980;2023-06-14T04:01:16;101578.80;;;17.76;82.37
57412;BME280;43247;52.828;-8.980;2023-06-14T04:02:16;101579.43;;;17.73;82.43
57412;BME280;43247;52.828;-8.980;2023-06-14T04:03:16;101576.14;;;17.59;82.86
57412;BME280;43247;52.828;-8.980;2023-06-14T04:04:16;101576.52;;;17.57;83.09
57412;BME280;43247;52.828;-8.980;2023-06-14T04:05:17;101578.56;;;17.59;82.85
57412;BME280;43247;52.828;-8.980;2023-06-14T04:06:17;101577.70;;;17.62;82.76
57412;BME280;43247;52.828;-8.980;2023-06-14T04:07:17;101579.23;;;17.64;82.63
57412;BME280;43247;52.828;-8.980;2023-06-14T04:08:17;101578.04;;;17.62;82.71
57412;BME280;43247;52.828;-8.980;2023-06-14T04:09:18;101578.45;;;17.71;82.45
57412;BME280;43247;52.828;-8.980;2023-06-14T04:10:18;101579.98;;;17.69;82.51
57412;BME280;43247;52.828;-8.980;2023-06-14T04:11:18;101578.26;;;17.72;82.44
57412;BME280;43247;52.828;-8.980;2023-06-14T04:12:18;101579.22;;;17.75;82.24
57412;BME280;43247;52.828;-8.980;2023-06-14T04:13:18;101580.86;;;17.76;82.38
57412;BME280;43247;52.828;-8.980;2023-06-14T04:14:19;101583.55;;;17.75;82.32
57412;BME280;43247;52.828;-8.980;2023-06-14T04:15:19;101583.69;;;17.76;82.37
57412;BME280;43247;52.828;-8.980;2023-06-14T04:16:19;101584.37;;;17.73;82.44
57412;BME280;43247;52.828;-8.980;2023-06-14T04:17:20;101585.61;;;17.71;82.62
57412;BME280;43247;52.828;-8.980;2023-06-14T04:18:20;101586.76;;;17.69;82.66
57412;BME280;43247;52.828;-8.980;2023-06-14T04:19:20;101587.26;;;17.65;82.89
57412;BME280;43247;52.828;-8.980;2023-06-14T04:20:21;101588.22;;;17.63;82.94
57412;BME280;43247;52.828;-8.980;2023-06-14T04:21:21;101589.84;;;17.60;82.95
57412;BME280;43247;52.828;-8.980;2023-06-14T04:22:21;101590.13;;;17.60;83.04
57412;BME280;43247;52.828;-8.980;2023-06-14T04:23:22;101589.12;;;17.59;83.09
57412;BME280;43247;52.828;-8.980;2023-06-14T04:24:22;101586.32;;;17.57;83.12
57412;BME280;43247;52.828;-8.980;2023-06-14T04:25:23;101585.18;;;17.56;83.20
57412;BME280;43247;52.828;-8.980;2023-06-14T04:26:23;101585.43;;;17.55;83.32
57412;BME280;43247;52.828;-8.980;2023-06-14T04:27:23;101583.40;;;17.54;83.37
57412;BME280;43247;52.828;-8.980;2023-06-14T04:28:24;101584.88;;;17.54;83.41
57412;BME280;43247;52.828;-8.980;2023-06-14T04:29:24;101587.45;;;17.53;83.44
57412;BME280;43247;52.828;-8.980;2023-06-14T04:30:24;101587.17;;;17.51;83.57
57412;BME280;43247;52.828;-8.980;2023-06-14T04:31:24;101589.60;;;17.50;83.59
57412;BME280;43247;52.828;-8.980;2023-06-14T04:32:25;101589.55;;;17.49;83.69
57412;BME280;43247;52.828;-8.980;2023-06-14T04:33:25;101588.40;;;17.48;83.72
57412;BME280;43247;52.828;-8.980;2023-06-14T04:34:26;101591.44;;;17.47;83.76
57412;BME280;43247;52.828;-8.980;2023-06-14T04:35:26;101592.61;;;17.48;83.76
57412;BME280;43247;52.828;-8.980;2023-06-14T04:36:26;101593.41;;;17.46;83.88
57412;BME280;43247;52.828;-8.980;2023-06-14T04:37:27;101594.15;;;17.45;83.88
57412;BME280;43247;52.828;-8.980;2023-06-14T04:38:27;101595.57;;;17.44;83.95
57412;BME280;43247;52.828;-8.980;2023-06-14T04:39:27;101596.04;;;17.43;83.94
57412;BME280;43247;52.828;-8.980;2023-06-14T04:40:27;101597.60;;;17.42;84.00
57412;BME280;43247;52.828;-8.980;2023-06-14T04:41:28;101597.62;;;17.41;84.07
57412;BME280;43247;52.828;-8.980;2023-06-14T04:42:28;101594.66;;;17.41;84.13
57412;BME280;43247;52.828;-8.980;2023-06-14T04:43:29;101594.50;;;17.41;84.25
57412;BME280;43247;52.828;-8.980;2023-06-14T04:44:29;101594.46;;;17.42;84.27
57412;BME280;43247;52.828;-8.980;2023-06-14T04:45:29;101595.11;;;17.41;84.29
57412;BME280;43247;52.828;-8.980;2023-06-14T04:46:29;101595.48;;;17.41;84.26
57412;BME280;43247;52.828;-8.980;2023-06-14T04:47:29;101593.30;;;17.41;84.28
57412;BME280;43247;52.828;-8.980;2023-06-14T04:48:30;101595.08;;;17.40;84.35
57412;BME280;43247;52.828;-8.980;2023-06-14T04:49:30;101596.01;;;17.39;84.25
57412;BME280;43247;52.828;-8.980;2023-06-14T04:50:30;101596.59;;;17.39;84.36
57412;BME280;43247;52.828;-8.980;2023-06-14T04:51:31;101599.23;;;17.38;84.33
57412;BME280;43247;52.828;-8.980;2023-06-14T04:52:31;101600.03;;;17.38;84.37
57412;BME280;43247;52.828;-8.980;2023-06-14T04:53:32;101600.88;;;17.38;84.40
57412;BME280;43247;52.828;-8.980;2023-06-14T04:54:32;101599.46;;;17.38;84.39
57412;BME280;43247;52.828;-8.980;2023-06-14T04:55:32;101601.13;;;17.37;84.42
57412;BME280;43247;52.828;-8.980;2023-06-14T04:56:33;101602.48;;;17.37;84.45
57412;BME280;43247;52.828;-8.980;2023-06-14T04:57:33;101601.12;;;17.36;84.49
57412;BME280;43247;52.828;-8.980;2023-06-14T04:58:33;101599.65;;;17.36;84.44
57412;BME280;43247;52.828;-8.980;2023-06-14T04:59:33;101600.76;;;17.35;84.50
57412;BME280;43247;52.828;-8.980;2023-06-14T05:00:34;101601.59;;;17.35;84.50
57412;BME280;43247;52.828;-8.980;2023-06-14T05:01:34;101601.55;;;17.34;84.54
57412;BME280;43247;52.828;-8.980;2023-06-14T05:02:34;101605.71;;;17.33;84.64
57412;BME280;43247;52.828;-8.980;2023-06-14T05:03:34;101605.15;;;17.33;84.57
57412;BME280;43247;52.828;-8.980;2023-06-14T05:04:34;101606.46;;;17.33;84.58
57412;BME280;43247;52.828;-8.980;2023-06-14T05:05:35;101609.27;;;17.32;84.62
57412;BME280;43247;52.828;-8.980;2023-06-14T05:06:35;101610.04;;;17.32;84.67
57412;BME280;43247;52.828;-8.980;2023-06-14T05:07:35;101609.83;;;17.32;84.67
57412;BME280;43247;52.828;-8.980;2023-06-14T05:08:36;101611.94;;;17.31;84.76
57412;BME280;43247;52.828;-8.980;2023-06-14T05:09:36;101613.28;;;17.32;84.79
57412;BME280;43247;52.828;-8.980;2023-06-14T05:10:36;101612.59;;;17.32;84.81
57412;BME280;43247;52.828;-8.980;2023-06-14T05:11:36;101615.54;;;17.32;84.80